createdAt,value
2023-04-14T00:01:17.405Z,10.07
2023-04-14T00:03:46.084Z,9.33
2023-04-14T00:06:14.450Z,7.83
2023-04-14T00:08:42.641Z,9.13
2023-04-14T00:11:12.498Z,10.93
2023-04-14T00:13:40.815Z,10.17
2023-04-14T00:16:09.340Z,8.53
2023-04-14T00:18:40.841Z,7.23
2023-04-14T00:21:09.159Z,11.33
2023-04-14T00:23:37.385Z,7.63
2023-04-14T00:26:06.519Z,10.17
2023-04-14T00:28:36.203Z,11.93
2023-04-14T00:31:04.467Z,8.93
2023-04-14T00:33:33.399Z,6.80
2023-04-14T00:36:03.121Z,11.23
2023-04-14T00:38:31.504Z,7.93
2023-04-14T00:40:59.775Z,8.13
2023-04-14T00:43:28.027Z,8.20
2023-04-14T00:45:57.847Z,7.90
2023-04-14T00:48:26.109Z,5.77
2023-04-14T00:50:54.468Z,9.63
2023-04-14T00:53:22.726Z,9.87
2023-04-14T00:55:51.948Z,7.40
2023-04-14T00:58:20.328Z,7.43
2023-04-14T01:00:53.951Z,7.87
2023-04-14T01:03:24.682Z,8.23
2023-04-14T01:05:53.293Z,6.50
2023-04-14T01:08:22.698Z,6.47
2023-04-14T01:11:02.590Z,6.50
2023-04-14T01:13:38.347Z,7.23
2023-04-14T01:16:15.744Z,7.87
2023-04-14T01:18:53.139Z,6.40
2023-04-14T01:21:27.733Z,6.27
2023-04-14T01:24:26.217Z,10.17
2023-04-14T01:27:07.067Z,8.13
2023-04-14T01:29:54.033Z,7.57
2023-04-14T01:32:28.419Z,7.60
2023-04-14T01:35:01.004Z,6.10
2023-04-14T01:37:31.650Z,5.27
2023-04-14T01:40:05.780Z,7.07
2023-04-14T01:42:37.814Z,8.77
2023-04-14T01:45:11.739Z,7.80
2023-04-14T01:47:44.170Z,6.30
2023-04-14T01:50:14.101Z,6.10
2023-04-14T01:52:47.644Z,6.60
2023-04-14T01:55:18.392Z,7.73
2023-04-14T01:57:48.379Z,6.57
2023-04-14T02:00:19.178Z,10.03
2023-04-14T02:02:52.386Z,9.13
2023-04-14T02:05:22.275Z,7.13
2023-04-14T02:07:53.216Z,6.27
2023-04-14T02:10:24.618Z,9.53
2023-04-14T02:12:56.397Z,6.33
2023-04-14T02:15:28.574Z,10.17
2023-04-14T02:17:58.991Z,8.40
2023-04-14T02:20:29.591Z,7.77
2023-04-14T02:22:58.123Z,12.50
2023-04-14T02:25:33.300Z,7.57
2023-04-14T02:28:06.585Z,9.67
2023-04-14T02:30:39.402Z,11.90
2023-04-14T02:33:11.351Z,12.50
2023-04-14T02:35:43.897Z,8.67
2023-04-14T02:38:19.619Z,7.57
2023-04-14T02:40:48.577Z,9.60
2023-04-14T02:43:21.515Z,8.80
2023-04-14T02:45:52.680Z,13.67
2023-04-14T02:48:25.956Z,15.10
2023-04-14T02:50:56.791Z,8.43
2023-04-14T02:53:28.780Z,12.67
2023-04-14T02:56:20.857Z,9.83
2023-04-14T02:58:51.596Z,8.97
2023-04-14T03:01:22.681Z,12.30
2023-04-14T03:03:54.656Z,9.23
2023-04-14T03:06:26.228Z,14.30
2023-04-14T03:08:58.318Z,8.57
2023-04-14T03:11:28.857Z,7.97
2023-04-14T03:13:58.649Z,10.60
2023-04-14T03:16:29.051Z,7.00
2023-04-14T03:19:00.649Z,6.57
2023-04-14T03:21:30.446Z,7.80
2023-04-14T03:24:00.965Z,8.43
2023-04-14T03:26:33.314Z,14.53
2023-04-14T03:29:06.611Z,9.83
2023-04-14T03:31:38.075Z,7.80
2023-04-14T03:34:10.107Z,10.03
2023-04-14T03:36:44.738Z,9.70
2023-04-14T03:39:14.883Z,8.00
2023-04-14T03:41:49.363Z,6.67
2023-04-14T03:44:19.997Z,9.23
2023-04-14T03:46:51.512Z,8.70
2023-04-14T03:49:24.164Z,8.47
2023-04-14T03:51:55.879Z,8.37
2023-04-14T03:54:27.913Z,7.03
2023-04-14T03:56:57.482Z,10.70
2023-04-14T03:59:28.869Z,7.77
2023-04-14T04:01:58.681Z,9.17
2023-04-14T04:04:28.819Z,8.20
2023-04-14T04:07:00.167Z,9.20
2023-04-14T04:09:29.877Z,12.10
2023-04-14T04:11:59.953Z,8.50
2023-04-14T04:14:31.102Z,9.77
2023-04-14T04:17:03.286Z,8.57
2023-04-14T04:19:35.632Z,10.13
2023-04-14T04:22:05.142Z,8.67
2023-04-14T04:24:38.581Z,9.80
2023-04-14T04:27:24.444Z,9.37
2023-04-14T04:29:56.416Z,10.67
2023-04-14T04:32:25.175Z,7.27
2023-04-14T04:34:56.750Z,14.80
2023-04-14T04:37:28.718Z,8.20
2023-04-14T04:39:59.026Z,8.50
2023-04-14T04:42:28.608Z,9.87
2023-04-14T04:44:57.685Z,10.17
2023-04-14T04:47:26.514Z,5.43
2023-04-14T04:49:56.127Z,9.90
2023-04-14T04:52:26.904Z,10.90
2023-04-14T04:54:55.507Z,9.03
2023-04-14T04:57:23.715Z,8.87
2023-04-14T04:59:51.924Z,8.00
2023-04-14T05:02:20.303Z,9.07
2023-04-14T05:04:48.921Z,11.13
2023-04-14T05:07:19.701Z,12.10
2023-04-14T05:09:48.007Z,8.80
2023-04-14T05:12:16.371Z,8.73
2023-04-14T05:14:44.607Z,13.40
2023-04-14T05:17:12.954Z,10.73
2023-04-14T05:19:41.914Z,11.13
2023-04-14T05:22:10.136Z,12.37
2023-04-14T05:24:40.171Z,9.07
2023-04-14T05:27:14.264Z,9.77
2023-04-14T05:29:43.138Z,9.80
2023-04-14T05:32:12.920Z,9.83
2023-04-14T05:34:41.265Z,10.57
2023-04-14T05:37:11.344Z,12.47
2023-04-14T05:39:40.993Z,9.80
2023-04-14T05:42:09.275Z,10.87
2023-04-14T05:44:37.544Z,8.40
2023-04-14T05:47:05.956Z,11.03
2023-04-14T05:49:34.301Z,9.93
2023-04-14T05:52:02.854Z,10.40
2023-04-14T05:54:31.070Z,8.07
2023-04-14T05:57:00.970Z,9.97
2023-04-14T05:59:29.298Z,9.13
2023-04-14T06:01:58.057Z,9.03
2023-04-14T06:04:26.412Z,11.63
2023-04-14T06:06:54.782Z,9.80
2023-04-14T06:09:23.022Z,10.80
2023-04-14T06:11:51.231Z,9.53
2023-04-14T06:14:20.968Z,9.57
2023-04-14T06:16:51.089Z,10.07
2023-04-14T06:19:19.537Z,7.33
2023-04-14T06:21:47.993Z,11.13
2023-04-14T06:24:16.352Z,12.07
2023-04-14T06:26:44.598Z,12.60
2023-04-14T06:29:12.836Z,10.17
2023-04-14T06:31:42.771Z,14.77
2023-04-14T06:34:11.174Z,11.80
2023-04-14T06:36:39.365Z,15.80
2023-04-14T06:39:07.596Z,10.53
2023-04-14T06:41:35.880Z,12.33
2023-04-14T06:44:05.912Z,14.57
2023-04-14T06:46:36.015Z,11.67
2023-04-14T06:49:06.045Z,12.20
2023-04-14T06:51:34.673Z,14.60
2023-04-14T06:54:03.192Z,11.30
2023-04-14T06:56:31.757Z,12.77
2023-04-14T06:59:00.015Z,12.90
2023-04-14T07:01:28.316Z,8.97
2023-04-14T07:03:56.988Z,10.47
2023-04-14T07:06:26.734Z,8.30
2023-04-14T07:08:56.322Z,11.97
2023-04-14T07:11:24.575Z,8.63
2023-04-14T07:13:52.820Z,12.60
2023-04-14T07:16:21.107Z,9.30
2023-04-14T07:18:49.370Z,12.47
2023-04-14T07:21:17.638Z,9.10
2023-04-14T07:23:47.556Z,10.63
2023-04-14T07:26:15.943Z,8.60
2023-04-14T07:28:44.409Z,8.67
2023-04-14T07:31:13.819Z,9.40
2023-04-14T07:33:42.131Z,7.87
2023-04-14T07:36:10.927Z,12.03
2023-04-14T07:38:39.246Z,7.07
2023-04-14T07:41:08.915Z,10.97
2023-04-14T07:43:37.252Z,9.30
2023-04-14T07:46:06.738Z,11.53
2023-04-14T07:48:36.187Z,11.00
2023-04-14T07:51:05.413Z,12.97
2023-04-14T07:53:34.046Z,7.50
2023-04-14T07:56:02.376Z,8.07
2023-04-14T07:58:32.056Z,6.77
2023-04-14T08:01:00.497Z,8.90
2023-04-14T08:03:28.861Z,5.97
2023-04-14T08:05:57.618Z,9.43
2023-04-14T08:08:26.330Z,7.47
2023-04-14T08:10:54.548Z,12.47
2023-04-14T08:13:22.919Z,7.50
2023-04-14T08:15:52.593Z,9.67
2023-04-14T08:18:22.190Z,7.77
2023-04-14T08:20:50.470Z,6.07
2023-04-14T08:23:18.710Z,7.67
2023-04-14T08:25:48.059Z,6.43
2023-04-14T08:28:16.321Z,4.90
2023-04-14T08:30:44.599Z,7.70
2023-04-14T08:33:14.237Z,6.53
2023-04-14T08:35:43.774Z,6.70
2023-04-14T08:38:12.379Z,7.60
2023-04-14T08:40:42.194Z,4.10
2023-04-14T08:43:13.166Z,6.60
2023-04-14T08:45:44.728Z,4.77
2023-04-14T08:48:17.484Z,5.33
2023-04-14T08:50:53.817Z,6.57
2023-04-14T08:53:24.713Z,4.93
2023-04-14T08:55:54.862Z,4.07
2023-04-14T08:58:24.635Z,3.97
2023-04-14T09:00:55.264Z,4.57
2023-04-14T09:03:26.352Z,5.03
2023-04-14T09:05:55.024Z,4.27
2023-04-14T09:08:23.545Z,4.20
2023-04-14T09:10:52.283Z,6.13
2023-04-14T09:13:23.081Z,6.30
2023-04-14T09:15:52.166Z,5.07
2023-04-14T09:18:20.438Z,5.40
2023-04-14T09:21:51.007Z,4.40
2023-04-14T09:23:41.770Z,4.60
2023-04-14T09:26:11.612Z,3.20
2023-04-14T09:28:40.385Z,5.67
2023-04-14T09:31:09.336Z,4.60
2023-04-14T09:33:40.604Z,6.97
2023-04-14T09:36:19.456Z,4.43
2023-04-14T09:38:48.340Z,7.20
2023-04-14T09:41:18.327Z,6.40
2023-04-14T09:43:47.148Z,3.73
2023-04-14T09:46:16.615Z,4.37
2023-04-14T09:48:52.638Z,4.57
2023-04-14T09:51:25.095Z,3.77
2023-04-14T09:53:54.536Z,5.07
2023-04-14T09:56:27.935Z,3.10
2023-04-14T09:59:00.243Z,3.13
2023-04-14T10:01:32.115Z,3.00
2023-04-14T10:04:01.447Z,2.37
2023-04-14T10:06:31.664Z,4.37
2023-04-14T10:09:00.507Z,4.10
2023-04-14T10:11:30.484Z,3.87
2023-04-14T10:14:00.366Z,3.60
2023-04-14T10:16:28.946Z,2.73
2023-04-14T10:18:58.487Z,3.63
2023-04-14T10:21:27.926Z,4.00
2023-04-14T10:23:58.470Z,5.40
2023-04-14T10:26:27.971Z,3.67
2023-04-14T10:28:57.316Z,4.87
2023-04-14T10:31:29.884Z,3.93
2023-04-14T10:33:58.367Z,3.97
2023-04-14T10:36:28.059Z,3.90
2023-04-14T10:39:03.109Z,4.57
2023-04-14T10:41:47.251Z,4.73
2023-04-14T10:44:31.484Z,2.35
2023-04-14T10:47:02.257Z,3.37
2023-04-14T10:49:33.130Z,3.53
2023-04-14T10:52:03.352Z,4.77
2023-04-14T10:54:52.748Z,4.45
2023-04-14T10:57:23.661Z,3.87
2023-04-14T10:59:57.187Z,3.70
2023-04-14T11:02:31.163Z,3.70
2023-04-14T11:05:05.118Z,3.07
2023-04-14T11:07:39.107Z,3.43
2023-04-14T11:10:28.242Z,4.73
2023-04-14T11:12:57.981Z,3.50
2023-04-14T11:15:44.967Z,3.13
2023-04-14T11:18:15.096Z,5.03
2023-04-14T11:20:43.762Z,3.27
2023-04-14T11:23:14.402Z,3.03
2023-04-14T11:25:45.558Z,4.50
2023-04-14T11:28:14.388Z,2.40
2023-04-14T11:30:44.204Z,2.73
2023-04-14T11:33:12.808Z,3.97
2023-04-14T11:35:43.428Z,3.60
2023-04-14T11:38:12.408Z,5.15
2023-04-14T11:40:40.719Z,3.57
2023-04-14T11:43:10.441Z,4.38
2023-04-14T11:45:43.711Z,2.65
2023-04-14T11:48:13.272Z,3.05
2023-04-14T11:50:42.759Z,4.43
2023-04-14T11:53:12.197Z,3.95
2023-04-14T11:55:43.768Z,3.65
2023-04-14T11:58:13.932Z,2.38
2023-04-14T12:00:42.943Z,3.80
2023-04-14T12:03:11.688Z,2.85
2023-04-14T12:05:41.509Z,2.45
2023-04-14T12:08:12.590Z,3.20
2023-04-14T12:10:42.255Z,4.50
2023-04-14T12:13:11.852Z,4.30
2023-04-14T12:15:43.326Z,2.30
2023-04-14T12:18:13.788Z,2.40
2023-04-14T12:20:43.491Z,5.07
2023-04-14T12:23:11.847Z,3.97
2023-04-14T12:25:40.681Z,3.42
2023-04-14T12:28:09.025Z,2.05
2023-04-14T12:30:38.630Z,4.00
2023-04-14T12:33:14.395Z,3.95
2023-04-14T12:35:42.621Z,3.33
2023-04-14T12:38:12.643Z,4.18
2023-04-14T12:40:42.637Z,2.53
2023-04-14T12:43:11.098Z,1.75
2023-04-14T12:45:43.772Z,1.52
2023-04-14T12:48:15.971Z,2.42
2023-04-14T12:50:44.627Z,1.75
2023-04-14T12:53:26.462Z,1.98
2023-04-14T12:56:08.861Z,2.08
2023-04-14T12:58:37.882Z,4.38
2023-04-14T13:01:07.852Z,2.63
2023-04-14T13:03:42.456Z,2.17
2023-04-14T13:06:12.302Z,2.95
2023-04-14T13:08:45.916Z,5.10
2023-04-14T13:11:14.656Z,2.80
2023-04-14T13:13:44.388Z,2.97
2023-04-14T13:16:16.231Z,4.70
2023-04-14T13:18:48.119Z,2.13
2023-04-14T13:21:16.982Z,4.00
2023-04-14T13:23:45.371Z,3.78
2023-04-14T13:26:13.823Z,3.00
2023-04-14T13:28:42.164Z,3.58
2023-04-14T13:31:11.672Z,2.53
2023-04-14T13:33:39.914Z,2.25
2023-04-14T13:36:09.899Z,2.72
2023-04-14T13:38:38.199Z,2.42
2023-04-14T13:41:07.162Z,2.90
2023-04-14T13:43:36.177Z,2.80
2023-04-14T13:46:04.558Z,2.58
2023-04-14T13:48:32.866Z,2.38
2023-04-14T13:51:02.276Z,3.58
2023-04-14T13:53:32.445Z,2.05
2023-04-14T13:56:00.833Z,3.30
2023-04-14T13:58:29.097Z,2.35
2023-04-14T14:00:57.347Z,3.22
2023-04-14T14:03:27.874Z,1.95
2023-04-14T14:05:57.411Z,2.25
2023-04-14T14:08:26.098Z,1.92
2023-04-14T14:10:55.693Z,2.25
2023-04-14T14:13:24.059Z,3.28
2023-04-14T14:15:52.954Z,4.32
2023-04-14T14:18:21.745Z,1.70
2023-04-14T14:20:50.600Z,2.25
2023-04-14T14:23:18.853Z,2.25
2023-04-14T14:25:47.349Z,2.85
2023-04-14T14:28:17.308Z,2.67
2023-04-14T14:30:46.112Z,1.42
2023-04-14T14:33:14.941Z,2.05
2023-04-14T14:35:43.220Z,2.05
2023-04-14T14:38:11.504Z,1.67
2023-04-14T14:40:40.130Z,1.55
2023-04-14T14:43:08.692Z,3.10
2023-04-14T14:45:38.352Z,2.13
2023-04-14T14:48:11.846Z,2.28
2023-04-14T14:50:40.198Z,3.67
2023-04-14T14:53:08.408Z,1.80
2023-04-14T14:55:36.601Z,2.95
2023-04-14T14:58:06.382Z,2.95
2023-04-14T15:00:34.656Z,2.38
2023-04-14T15:03:04.606Z,2.13
2023-04-14T15:05:32.964Z,3.05
2023-04-14T15:08:01.235Z,1.70
2023-04-14T15:10:29.527Z,2.22
2023-04-14T15:12:57.773Z,2.17
2023-04-14T15:15:26.100Z,2.27
2023-04-14T15:17:54.439Z,2.97
2023-04-14T15:20:24.111Z,3.07
2023-04-14T15:22:52.437Z,2.17
2023-04-14T15:25:21.110Z,2.40
2023-04-14T15:27:49.384Z,2.80
2023-04-14T15:30:17.741Z,1.40
2023-04-14T15:32:46.001Z,3.20
2023-04-14T15:35:14.441Z,3.10
2023-04-14T15:37:44.093Z,2.87
2023-04-14T15:40:12.630Z,2.83
2023-04-14T15:42:41.538Z,2.03
2023-04-14T15:45:10.736Z,2.30
2023-04-14T15:47:39.320Z,1.40
2023-04-14T15:50:10.222Z,2.93
2023-04-14T15:52:41.424Z,2.87
2023-04-14T15:55:11.749Z,1.90
2023-04-14T15:57:39.998Z,1.63
2023-04-14T16:00:09.403Z,2.60
2023-04-14T16:02:45.858Z,2.00
2023-04-14T16:05:14.560Z,2.67
2023-04-14T16:07:43.882Z,4.57
2023-04-14T16:10:13.805Z,1.92
2023-04-14T16:12:42.001Z,2.83
2023-04-14T16:15:11.067Z,1.98
2023-04-14T16:17:39.335Z,2.50
2023-04-14T16:20:08.196Z,2.35
2023-04-14T16:22:37.102Z,1.45
2023-04-14T16:25:06.853Z,1.35
2023-04-14T16:27:36.477Z,4.30
2023-04-14T16:30:05.542Z,2.35
2023-04-14T16:32:33.854Z,3.67
2023-04-14T16:35:02.426Z,1.95
2023-04-14T16:37:30.830Z,3.95
2023-04-14T16:39:59.101Z,3.78
2023-04-14T16:42:27.561Z,2.30
2023-04-14T16:44:57.390Z,2.63
2023-04-14T16:47:25.686Z,3.83
2023-04-14T16:49:54.126Z,2.03
2023-04-14T16:52:22.453Z,2.38
2023-04-14T16:54:50.676Z,2.50
2023-04-14T16:57:18.919Z,2.50
2023-04-14T16:59:48.148Z,2.13
2023-04-14T17:02:17.983Z,2.25
2023-04-14T17:04:46.678Z,1.90
2023-04-14T17:07:15.046Z,4.13
2023-04-14T17:09:43.332Z,1.33
2023-04-14T17:12:11.629Z,3.25
2023-04-14T17:14:39.831Z,4.35
2023-04-14T17:17:08.246Z,4.30
2023-04-14T17:19:37.917Z,2.55
2023-04-14T17:22:06.739Z,2.42
2023-04-14T17:24:34.955Z,2.55
2023-04-14T17:27:03.828Z,3.55
2023-04-14T17:29:33.178Z,2.60
2023-04-14T17:32:02.650Z,1.77
2023-04-14T17:34:31.493Z,2.37
2023-04-14T17:37:01.341Z,3.07
2023-04-14T17:39:29.730Z,3.80
2023-04-14T17:41:58.960Z,3.73
2023-04-14T17:44:32.967Z,3.90
2023-04-14T17:47:03.007Z,2.23
2023-04-14T17:49:31.542Z,3.83
2023-04-14T17:52:01.343Z,3.17
2023-04-14T17:54:30.559Z,3.97
2023-04-14T17:56:58.790Z,4.10
2023-04-14T17:59:27.246Z,2.87
2023-04-14T18:01:55.730Z,2.17
2023-04-14T18:04:24.206Z,4.83
2023-04-14T18:06:52.770Z,2.80
2023-04-14T18:09:22.716Z,5.47
2023-04-14T18:11:51.045Z,4.33
2023-04-14T18:14:19.701Z,2.87
2023-04-14T18:16:47.956Z,3.20
2023-04-14T18:19:16.250Z,4.27
2023-04-14T18:21:45.189Z,3.60
2023-04-14T18:26:46.551Z,3.87
2023-04-14T18:29:14.931Z,3.77
2023-04-14T18:31:43.671Z,5.23
2023-04-14T18:34:13.567Z,4.53
2023-04-14T18:36:41.848Z,6.53
2023-04-14T18:39:10.275Z,4.63
2023-04-14T18:41:38.689Z,4.50
2023-04-14T18:44:08.414Z,4.20
2023-04-14T18:46:37.853Z,4.63
2023-04-14T18:49:06.302Z,4.17
2023-04-14T18:51:34.513Z,4.57
2023-04-14T18:54:03.247Z,3.17
2023-04-14T18:56:31.685Z,4.23
2023-04-14T18:59:00.740Z,4.13
2023-04-14T19:01:30.549Z,3.60
2023-04-14T19:03:59.272Z,4.97
2023-04-14T19:06:27.729Z,3.67
2023-04-14T19:08:56.706Z,4.53
2023-04-14T19:11:25.259Z,4.33
2023-04-14T19:13:54.108Z,3.20
2023-04-14T19:16:22.739Z,2.87
2023-04-14T19:18:52.404Z,3.07
2023-04-14T19:21:20.745Z,4.40
2023-04-14T19:23:50.984Z,4.57
2023-04-14T19:26:19.447Z,4.77
2023-04-14T19:28:47.822Z,5.80
2023-04-14T19:31:17.495Z,5.03
2023-04-14T19:33:46.121Z,4.77
2023-04-14T19:36:16.451Z,4.57
2023-04-14T19:38:44.858Z,5.57
2023-04-14T19:41:13.733Z,5.73
2023-04-14T19:43:42.070Z,4.77
2023-04-14T19:46:13.103Z,7.80
2023-04-14T19:48:41.476Z,9.97
2023-04-14T19:51:10.136Z,6.47
2023-04-14T19:53:39.850Z,8.23
2023-04-14T19:56:08.808Z,8.03
2023-04-14T19:58:37.082Z,7.50
2023-04-14T20:01:05.795Z,7.70
2023-04-14T20:03:34.829Z,6.23
2023-04-14T20:06:03.344Z,6.37
2023-04-14T20:08:32.249Z,5.17
2023-04-14T20:11:01.901Z,5.00
2023-04-14T20:13:32.151Z,5.53
2023-04-14T20:16:01.525Z,4.80
2023-04-14T20:18:30.007Z,5.53
2023-04-14T20:20:58.973Z,12.53
2023-04-14T20:23:27.909Z,20.30
2023-04-14T20:25:56.830Z,16.40
2023-04-14T20:28:26.755Z,17.53
2023-04-14T20:30:56.028Z,13.70
2023-04-14T20:33:24.874Z,11.43
2023-04-14T20:35:54.109Z,11.03
2023-04-14T20:38:23.640Z,9.47
2023-04-14T20:40:51.971Z,10.03
2023-04-14T20:43:20.334Z,8.70
2023-04-14T20:45:52.655Z,7.97
2023-04-14T20:48:21.538Z,6.93
2023-04-14T20:50:50.493Z,8.13
2023-04-14T20:53:21.984Z,6.80
2023-04-14T20:55:51.038Z,7.17
2023-04-14T20:58:19.425Z,6.90
2023-04-14T21:00:49.200Z,7.63
2023-04-14T21:03:17.568Z,7.63
2023-04-14T21:05:46.296Z,10.13
2023-04-14T21:08:14.552Z,8.13
2023-04-14T21:11:15.994Z,7.10
2023-04-14T21:15:42.243Z,7.73
2023-04-14T21:16:20.886Z,6.83
2023-04-14T21:18:49.266Z,7.60
2023-04-14T21:21:17.942Z,8.00
2023-04-14T21:23:46.340Z,6.23
2023-04-14T21:26:14.622Z,7.53
2023-04-14T21:28:43.035Z,7.07
2023-04-14T21:31:11.528Z,6.23
2023-04-14T21:33:41.836Z,8.57
2023-04-14T21:36:10.774Z,8.77
2023-04-14T21:38:39.590Z,6.43
2023-04-14T21:41:09.479Z,8.10
2023-04-14T21:43:38.726Z,5.80
2023-04-14T21:46:07.254Z,6.20
2023-04-14T21:48:35.746Z,6.53
2023-04-14T21:51:05.528Z,8.10
2023-04-14T21:53:33.937Z,14.37
2023-04-14T21:56:09.839Z,17.93
2023-04-14T21:58:39.401Z,17.97
2023-04-14T22:01:09.616Z,15.50
2023-04-14T22:03:40.607Z,13.23
2023-04-14T22:06:11.393Z,12.43
2023-04-14T22:08:40.552Z,11.73
2023-04-14T22:11:08.862Z,13.93
2023-04-14T22:13:37.144Z,13.13
2023-04-14T22:16:05.703Z,14.67
2023-04-14T22:18:34.237Z,11.07
2023-04-14T22:21:03.154Z,10.20
2023-04-14T22:23:33.048Z,8.07
2023-04-14T22:26:01.338Z,7.40
2023-04-14T22:28:29.579Z,8.70
2023-04-14T22:30:57.910Z,7.97
2023-04-14T22:33:26.688Z,6.60
2023-04-14T22:35:54.928Z,7.10
2023-04-14T22:38:23.137Z,7.37
2023-04-14T22:40:52.984Z,8.77
2023-04-14T22:43:21.445Z,10.20
2023-04-14T22:45:49.832Z,7.23
2023-04-14T22:48:18.254Z,7.33
2023-04-14T22:50:47.060Z,8.10
2023-04-14T22:53:15.239Z,6.97
2023-04-14T22:55:44.302Z,8.77
2023-04-14T22:58:17.102Z,11.50
2023-04-14T23:00:46.335Z,10.63
2023-04-14T23:03:15.584Z,8.80
2023-04-14T23:05:44.816Z,10.47
2023-04-14T23:08:13.102Z,8.57
2023-04-14T23:10:41.369Z,9.67
2023-04-14T23:13:09.598Z,6.73
2023-04-14T23:15:39.287Z,7.97
2023-04-14T23:18:07.576Z,7.90
2023-04-14T23:20:36.959Z,7.30
2023-04-14T23:23:05.848Z,7.07
2023-04-14T23:25:34.171Z,6.73
2023-04-14T23:28:02.427Z,8.43
2023-04-14T23:30:30.806Z,6.43
2023-04-14T23:33:01.119Z,7.40
2023-04-14T23:35:29.621Z,7.10
2023-04-14T23:38:02.339Z,7.73
2023-04-14T23:40:31.862Z,9.73
2023-04-14T23:43:00.170Z,8.47
2023-04-14T23:45:28.761Z,8.47
2023-04-14T23:47:58.637Z,6.63
2023-04-14T23:51:00.690Z,8.83
2023-04-14T23:53:16.595Z,7.67
2023-04-14T23:55:44.912Z,8.43
2023-04-14T23:58:13.171Z,7.77
